Time;durP1;ratioP1;P1;durP2;ratioP2;P2;SDS_P1;SDS_P2;PMS_P1;PMS_P2;Temp;Humidity;BMP_temperature;BMP_pressure;BME280_temperature;BME280_humidity;BME280_pressure;Samples;Min_cycle;Max_cycle;Signal;HPM_P1;HPM_P2
2023/01/10 00:03:25;;;;;;;12.25;5.50;;;;;;;4.16;100.00;100822.19;10544637;28;20054;-71
2023/01/10 00:08:25;;;;;;;8.45;5.28;;;;;;;4.01;100.00;100825.16;10578962;27;20036;-72
2023/01/10 00:13:26;;;;;;;12.02;7.43;;;;;;;3.87;100.00;100841.75;10536344;28;20051;-71
2023/01/10 00:18:26;;;;;;;12.73;6.20;;;;;;;3.79;100.00;100864.56;10549656;28;20148;-72
2023/01/10 00:23:27;;;;;;;15.23;5.80;;;;;;;3.88;100.00;100867.91;10537243;28;20587;-71
2023/01/10 00:28:27;;;;;;;10.35;5.43;;;;;;;3.92;100.00;100874.63;10535928;28;20067;-72
2023/01/10 00:33:30;;;;;;;11.43;6.63;;;;;;;3.84;100.00;100879.25;10569473;27;20503;-72
2023/01/10 00:38:34;;;;;;;13.73;6.18;;;;;;;3.76;100.00;100887.63;10559756;28;20039;-72
2023/01/10 00:48:56;;;;;;;13.73;5.88;;;;;;;3.57;100.00;100921.09;10593119;27;20036;-71
2023/01/10 00:53:56;;;;;;;16.75;7.55;;;;;;;3.44;100.00;100925.47;10579955;28;20516;-71
2023/01/10 00:58:56;;;;;;;14.68;6.75;;;;;;;3.40;100.00;100921.47;10594338;27;20066;-72
2023/01/10 01:03:58;;;;;;;16.45;7.07;;;;;;;2.93;100.00;100860.66;10578858;27;20032;-71
2023/01/10 01:08:58;;;;;;;16.08;7.57;;;;;;;3.35;100.00;100939.47;10579488;27;20043;-71
2023/01/10 01:13:59;;;;;;;30.35;8.75;;;;;;;3.30;100.00;100947.41;10580755;28;20042;-72
2023/01/10 01:18:59;;;;;;;19.67;7.65;;;;;;;3.40;100.00;100954.16;10559020;28;20027;-72
2023/01/10 01:24:00;;;;;;;25.58;8.52;;;;;;;3.44;100.00;100952.69;10535480;28;20036;-71
2023/01/10 01:29:00;;;;;;;18.50;7.70;;;;;;;3.61;100.00;100971.38;10535410;28;20036;-71
2023/01/10 01:34:01;;;;;;;20.55;7.40;;;;;;;3.88;100.00;100990.47;10518790;28;20074;-71
2023/01/10 01:39:02;;;;;;;20.23;7.20;;;;;;;4.01;100.00;101012.28;10567809;28;20047;-70
2023/01/10 01:44:05;;;;;;;32.05;9.38;;;;;;;4.00;100.00;101008.72;10595268;28;20602;-69
2023/01/10 01:49:10;;;;;;;21.05;7.78;;;;;;;4.01;100.00;101007.69;10561576;28;20038;-72
2023/01/10 01:54:11;;;;;;;28.23;7.25;;;;;;;4.21;100.00;101032.22;10544780;28;20031;-72
2023/01/10 01:59:15;;;;;;;32.03;8.90;;;;;;;4.28;100.00;101039.56;10577327;28;20043;-72
2023/01/10 02:04:21;;;;;;;22.88;8.43;;;;;;;4.19;100.00;101023.41;10577959;28;20479;-72
2023/01/10 02:10:00;;;;;;;31.13;8.98;;;;;;;4.14;100.00;101039.56;10510708;28;20036;-72
2023/01/10 02:15:01;;;;;;;21.95;7.82;;;;;;;4.07;100.00;101046.88;10517702;28;20550;-71
2023/01/10 02:20:06;;;;;;;21.55;7.18;;;;;;;3.98;100.00;101037.22;10534716;28;20485;-71
2023/01/10 02:25:18;;;;;;;32.70;8.23;;;;;;;4.00;100.00;101046.03;10518463;28;20472;-71
2023/01/10 02:30:43;;;;;;;24.25;7.45;;;;;;;4.02;100.00;101052.94;10557579;28;20051;-71
2023/01/10 02:35:46;;;;;;;21.85;8.35;;;;;;;3.92;100.00;101049.78;10586112;27;20054;-72
2023/01/10 02:41:08;;;;;;;21.33;8.43;;;;;;;3.84;100.00;101048.09;10584760;27;20055;-72
2023/01/10 02:46:17;;;;;;;22.60;8.02;;;;;;;3.77;100.00;101055.41;10544614;28;20036;-71
2023/01/10 02:51:27;;;;;;;25.65;7.72;;;;;;;3.66;100.00;101045.13;10528562;28;20048;-72
2023/01/10 02:56:49;;;;;;;17.98;8.38;;;;;;;3.80;100.00;101062.31;10551317;27;20174;-72
2023/01/10 03:02:01;;;;;;;19.45;7.20;;;;;;;3.92;100.00;101054.38;10585577;27;20040;-71
2023/01/10 03:07:20;;;;;;;21.00;7.72;;;;;;;3.93;100.00;101061.53;10583455;27;20051;-71
2023/01/10 03:12:24;;;;;;;24.65;8.18;;;;;;;4.00;100.00;101073.28;10583175;27;20043;-71
2023/01/10 03:17:24;;;;;;;14.60;6.80;;;;;;;4.09;100.00;101080.19;10584730;27;20038;-71
2023/01/10 03:22:25;;;;;;;13.35;6.28;;;;;;;4.13;100.00;101089.63;10567232;28;20031;-71
2023/01/10 03:27:37;;;;;;;25.92;8.13;;;;;;;4.23;100.00;101092.81;10583037;27;20046;-70
2023/01/10 03:32:37;;;;;;;19.48;6.82;;;;;;;4.31;100.00;101107.28;10599367;27;20032;-71
2023/01/10 03:37:43;;;;;;;24.75;8.10;;;;;;;4.38;100.00;101105.41;10526646;28;20036;-71
2023/01/10 03:48:14;;;;;;;26.63;8.77;;;;;;;4.47;100.00;101122.41;10538742;28;20133;-71
2023/01/10 03:53:14;;;;;;;13.70;6.40;;;;;;;4.39;100.00;101120.72;10539274;28;20044;-71
2023/01/10 03:58:16;;;;;;;16.38;6.40;;;;;;;4.37;100.00;101140.00;10539075;28;20047;-71
2023/01/10 04:03:16;;;;;;;20.90;8.13;;;;;;;4.36;100.00;101148.38;10521977;28;20047;-71
2023/01/10 04:08:17;;;;;;;29.42;8.30;;;;;;;4.41;100.00;101156.78;10538084;28;20047;-71
2023/01/10 04:13:17;;;;;;;17.77;7.30;;;;;;;4.37;100.00;101139.19;10540000;28;20036;-71
2023/01/10 04:18:18;;;;;;;17.50;6.72;;;;;;;4.50;100.00;101155.53;10522734;28;20036;-71
2023/01/10 04:23:18;;;;;;;14.82;6.88;;;;;;;4.50;100.00;101160.16;10540680;28;20066;-71
2023/01/10 04:28:19;;;;;;;17.05;7.88;;;;;;;4.52;100.00;101169.81;10538532;28;20047;-67
2023/01/10 04:33:19;;;;;;;18.92;7.38;;;;;;;4.55;100.00;101174.84;10538647;28;20055;-71
2023/01/10 04:38:20;;;;;;;24.02;8.95;;;;;;;4.45;100.00;101174.41;10554839;28;20033;-71
2023/01/10 04:43:20;;;;;;;17.88;7.07;;;;;;;4.28;100.00;101178.56;10522136;28;20502;-71
2023/01/10 04:48:21;;;;;;;21.15;7.57;;;;;;;4.14;100.00;101185.88;10538569;28;20039;-71
2023/01/10 04:53:21;;;;;;;12.80;6.78;;;;;;;4.04;100.00;101203.41;10539212;28;20032;-71
2023/01/10 04:58:22;;;;;;;13.45;6.97;;;;;;;4.02;100.00;101205.50;10553894;28;20055;-70
2023/01/10 05:03:22;;;;;;;24.42;7.32;;;;;;;3.98;100.00;101208.84;10535340;28;20047;-71
2023/01/10 05:08:23;;;;;;;26.95;8.43;;;;;;;4.01;100.00;101211.16;10535992;28;20039;-71
2023/01/10 05:13:24;;;;;;;20.52;8.82;;;;;;;4.08;100.00;101228.38;10521055;28;20032;-71
2023/01/10 05:18:25;;;;;;;22.15;8.77;;;;;;;4.01;100.00;101235.66;10520361;28;20058;-70
2023/01/10 05:23:25;;;;;;;26.60;8.27;;;;;;;3.93;100.00;101241.31;10536629;28;20036;-68
2023/01/10 05:28:26;;;;;;;20.98;8.27;;;;;;;3.89;100.00;101245.47;10536545;28;20040;-73
2023/01/10 05:33:27;;;;;;;16.35;7.50;;;;;;;3.96;100.00;101257.25;10536552;28;20036;-73
2023/01/10 05:38:28;;;;;;;20.33;8.20;;;;;;;4.06;100.00;101257.72;10536526;28;20126;-73
2023/01/10 05:43:29;;;;;;;15.60;9.13;;;;;;;4.22;100.00;101254.66;10537030;28;20024;-72
2023/01/10 05:48:29;;;;;;;26.58;9.40;;;;;;;4.30;100.00;101263.69;10519462;28;20032;-71
2023/01/10 05:53:30;;;;;;;31.05;9.98;;;;;;;4.29;100.00;101262.03;10537859;28;20033;-71
2023/01/10 05:58:30;;;;;;;29.38;11.50;;;;;;;4.31;100.00;101279.00;10535299;28;20036;-71
2023/01/10 06:03:31;;;;;;;27.08;10.13;;;;;;;4.48;100.00;101293.97;10537125;28;20047;-70
2023/01/10 06:08:31;;;;;;;23.08;9.57;;;;;;;4.65;100.00;101308.94;10543123;28;20400;-73
2023/01/10 06:13:32;;;;;;;23.65;10.63;;;;;;;4.71;100.00;101303.69;10546246;28;20043;-71
2023/01/10 06:18:32;;;;;;;31.48;10.43;;;;;;;4.76;100.00;101301.19;10560666;28;20043;-73
2023/01/10 06:23:33;;;;;;;36.85;11.27;;;;;;;4.75;100.00;101318.59;10526961;28;20050;-70
2023/01/10 06:28:33;;;;;;;35.35;10.85;;;;;;;4.79;100.00;101320.72;10543208;28;20032;-71
2023/01/10 06:33:34;;;;;;;25.10;9.90;;;;;;;4.82;100.00;101322.22;10544494;28;20040;-71
2023/01/10 06:38:34;;;;;;;32.70;10.93;;;;;;;4.82;100.00;101333.94;10578962;27;20039;-71
2023/01/10 06:43:35;;;;;;;28.25;10.35;;;;;;;4.81;100.00;101339.59;10569333;27;20035;-70
2023/01/10 06:48:36;;;;;;;21.83;9.77;;;;;;;4.80;100.00;101335.22;10585084;27;20038;-71
2023/01/10 06:53:36;;;;;;;22.10;9.90;;;;;;;4.73;100.00;101329.72;10551232;28;20027;-74
2023/01/10 06:58:40;;;;;;;20.88;8.77;;;;;;;4.56;100.00;101340.13;10585619;27;20523;-71
2023/01/10 07:03:40;;;;;;;20.60;9.07;;;;;;;4.39;100.00;101328.75;10580132;27;20077;-71
2023/01/10 07:08:43;;;;;;;27.48;9.32;;;;;;;4.37;100.00;101349.06;10527936;28;20059;-70
2023/01/10 07:13:44;;;;;;;34.25;10.43;;;;;;;4.29;100.00;101335.59;10558919;28;20123;-71
2023/01/10 07:18:44;;;;;;;21.77;9.00;;;;;;;4.22;100.00;101338.31;10541301;28;20416;-71
2023/01/10 07:23:51;;;;;;;34.65;9.15;;;;;;;4.20;100.00;101351.28;10541098;28;20063;-71
2023/01/10 07:28:52;;;;;;;30.30;9.98;;;;;;;4.09;100.00;101365.47;10542600;28;20040;-71
2023/01/10 07:33:52;;;;;;;28.05;11.00;;;;;;;4.13;100.00;101411.19;10540154;28;20040;-71
2023/01/10 07:38:53;;;;;;;35.63;12.00;;;;;;;4.25;100.00;101425.94;10563788;27;20040;-70
2023/01/10 07:43:53;;;;;;;41.08;12.15;;;;;;;4.43;100.00;101421.88;10529642;28;20094;-71
2023/01/10 07:48:53;;;;;;;32.22;11.15;;;;;;;4.51;100.00;101429.06;10520553;28;20035;-71
2023/01/10 07:53:54;;;;;;;33.60;13.32;;;;;;;4.59;100.00;101437.91;10539352;28;20036;-71
2023/01/10 07:58:54;;;;;;;43.15;15.70;;;;;;;4.71;100.00;101434.63;10541497;28;20047;-70
2023/01/10 08:03:56;;;;;;;38.17;13.55;;;;;;;4.69;100.00;101437.53;10536993;28;20044;-70
2023/01/10 08:08:56;;;;;;;39.63;16.55;;;;;;;4.80;100.00;101452.50;10544735;27;20522;-70
2023/01/10 08:13:57;;;;;;;33.10;16.00;;;;;;;4.73;100.00;101462.53;10538278;28;20051;-69
2023/01/10 08:18:57;;;;;;;37.05;14.63;;;;;;;4.87;100.00;101461.56;10537994;28;20097;-71
2023/01/10 08:23:58;;;;;;;33.60;15.02;;;;;;;5.02;100.00;101455.94;10539071;28;20039;-71
2023/01/10 08:28:59;;;;;;;27.02;13.77;;;;;;;5.08;100.00;101457.03;10538938;28;20043;-71
2023/01/10 08:34:00;;;;;;;34.20;15.25;;;;;;;5.07;100.00;101450.75;10541116;28;20260;-71
2023/01/10 08:39:00;;;;;;;45.90;15.13;;;;;;;5.22;100.00;101461.50;10522507;28;20043;-71
2023/01/10 08:44:01;;;;;;;35.90;13.88;;;;;;;5.30;100.00;101477.69;10538037;28;20032;-70
2023/01/10 08:49:01;;;;;;;30.77;13.48;;;;;;;5.39;100.00;101476.47;10520848;28;20032;-70
2023/01/10 08:54:02;;;;;;;24.35;10.88;;;;;;;5.31;100.00;101482.09;10526888;28;20046;-71
2023/01/10 08:59:02;;;;;;;30.52;11.52;;;;;;;5.44;100.00;101484.88;10562154;28;20044;-70
2023/01/10 09:04:04;;;;;;;25.80;10.70;;;;;;;5.50;100.00;101482.38;10561076;28;20036;-69
2023/01/10 09:09:04;;;;;;;29.35;11.88;;;;;;;5.58;100.00;101485.78;10530674;28;20044;-67
2023/01/10 09:14:06;;;;;;;23.10;8.80;;;;;;;5.59;100.00;101481.16;10545385;27;20047;-71
2023/01/10 09:19:06;;;;;;;32.33;10.77;;;;;;;5.69;100.00;101487.06;10566060;28;20042;-70
2023/01/10 09:24:07;;;;;;;30.80;10.50;;;;;;;5.68;100.00;101488.09;10541230;28;20043;-71
2023/01/10 09:29:07;;;;;;;24.27;9.63;;;;;;;5.59;100.00;101497.53;10519357;28;20437;-71
2023/01/10 09:34:08;;;;;;;34.90;10.05;;;;;;;5.52;100.00;101496.66;10519579;28;20044;-71
2023/01/10 09:39:08;;;;;;;22.25;9.10;;;;;;;5.54;100.00;101500.03;10538596;28;20040;-72
2023/01/10 09:44:24;;;;;;;27.50;9.98;;;;;;;5.66;100.00;101499.25;10537162;28;20036;-71
2023/01/10 09:50:02;;;;;;;19.23;8.15;;;;;;;5.76;100.00;101504.28;10537111;28;20052;-70
2023/01/10 09:55:19;;;;;;;22.88;9.13;;;;;;;5.91;100.00;101500.53;10534716;28;20067;-71
2023/01/10 10:00:30;;;;;;;24.85;9.05;;;;;;;6.03;100.00;101509.84;10552739;28;20076;-71
2023/01/10 10:05:31;;;;;;;30.00;8.32;;;;;;;6.06;100.00;101507.53;10536181;28;20536;-71
2023/01/10 10:10:38;;;;;;;26.73;8.65;;;;;;;6.13;100.00;101504.81;10536943;28;20062;-70
2023/01/10 10:15:47;;;;;;;24.40;7.57;;;;;;;6.28;100.00;101517.44;10502507;28;20402;-71
2023/01/10 10:21:06;;;;;;;23.30;7.97;;;;;;;6.26;100.00;101514.91;10537205;28;20059;-71
2023/01/10 10:26:32;;;;;;;27.23;7.70;;;;;;;6.26;100.00;101515.75;10536199;28;20047;-71
2023/01/10 10:32:00;;;;;;;22.83;6.70;;;;;;;6.38;100.00;101506.91;10534533;28;20505;-71
2023/01/10 10:37:37;;;;;;;20.92;6.93;;;;;;;6.36;100.00;101506.28;10536460;28;20051;-71
2023/01/10 10:42:40;;;;;;;24.67;6.88;;;;;;;6.40;100.00;101491.13;10484151;28;20496;-70
2023/01/10 10:47:41;;;;;;;20.48;7.55;;;;;;;6.37;100.00;101480.63;10536410;28;20044;-71
2023/01/10 10:52:42;;;;;;;33.72;8.73;;;;;;;6.39;100.00;101481.25;10542364;28;20036;-69
2023/01/10 10:57:43;;;;;;;21.33;7.13;;;;;;;6.51;100.00;101489.63;10525788;28;20032;-70
2023/01/10 11:02:47;;;;;;;23.48;7.05;;;;;;;6.46;100.00;101484.81;10541570;28;20035;-71
2023/01/10 11:07:47;;;;;;;32.25;7.60;;;;;;;6.55;100.00;101478.09;10547774;28;20047;-70
2023/01/10 11:12:49;;;;;;;19.77;6.47;;;;;;;6.68;100.00;101474.47;10524840;28;20032;-70
2023/01/10 11:18:06;;;;;;;25.02;7.75;;;;;;;6.65;100.00;101469.41;10493857;28;20476;-71
2023/01/10 11:23:06;;;;;;;30.20;8.05;;;;;;;6.73;100.00;101460.97;10524942;28;20036;-70
2023/01/10 11:28:11;;;;;;;29.45;7.97;;;;;;;6.76;100.00;101467.91;10542541;28;20028;-70
2023/01/10 11:33:19;;;;;;;28.70;8.75;;;;;;;6.73;100.00;101457.41;10541350;27;20492;-70
2023/01/10 11:38:20;;;;;;;23.17;10.05;;;;;;;6.83;100.00;101460.53;10547923;28;20036;-70
2023/01/10 11:43:33;;;;;;;22.45;8.70;;;;;;;6.84;100.00;101467.69;10544973;28;20044;-70
2023/01/10 11:48:59;;;;;;;36.60;11.00;;;;;;;6.93;100.00;101465.56;10541900;28;20054;-71
2023/01/10 11:54:10;;;;;;;20.92;8.65;;;;;;;6.77;100.00;101450.44;10556570;28;20044;-70
2023/01/10 11:59:12;;;;;;;28.85;11.48;;;;;;;6.77;100.00;101454.03;10539611;28;20036;-70
2023/01/10 12:04:14;;;;;;;27.00;9.88;;;;;;;6.79;100.00;101442.88;10540666;28;20032;-70
2023/01/10 12:09:38;;;;;;;30.80;10.18;;;;;;;6.80;100.00;101453.59;10562167;28;20040;-71
2023/01/10 12:14:39;;;;;;;31.45;10.15;;;;;;;6.75;100.00;101433.41;10555437;28;20036;-70
2023/01/10 12:19:39;;;;;;;33.83;9.05;;;;;;;6.73;100.00;101432.78;10520996;28;20044;-71
2023/01/10 12:24:40;;;;;;;29.30;9.02;;;;;;;6.32;100.00;101376.50;10495272;28;20044;-71
2023/01/10 12:29:58;;;;;;;23.52;6.82;;;;;;;6.70;100.00;101417.66;10503286;28;20040;-71
2023/01/10 12:35:00;;;;;;;24.00;8.82;;;;;;;6.53;100.00;101389.06;10545608;28;20115;-70
2023/01/10 12:40:08;;;;;;;25.00;8.55;;;;;;;6.79;100.00;101394.44;10538444;28;20032;-70
2023/01/10 12:45:29;;;;;;;22.60;7.85;;;;;;;6.79;100.00;101380.75;10487832;28;20032;-70
2023/01/10 12:50:52;;;;;;;23.77;8.20;;;;;;;6.74;100.00;101363.28;10503810;28;20039;-70
2023/01/10 12:55:55;;;;;;;20.45;7.07;;;;;;;6.64;100.00;101363.78;10520515;28;20047;-70
2023/01/10 13:00:57;;;;;;;31.70;11.13;;;;;;;6.63;100.00;101360.19;10503988;28;20411;-71
2023/01/10 13:05:58;;;;;;;25.55;7.50;;;;;;;6.47;100.00;101364.25;10518031;28;20059;-71
2023/01/10 13:10:59;;;;;;;23.65;7.40;;;;;;;6.43;100.00;101348.50;10501713;28;20105;-71
2023/01/10 13:16:27;;;;;;;26.50;8.30;;;;;;;6.44;100.00;101358.38;10501860;28;20032;-70
2023/01/10 13:21:28;;;;;;;19.65;6.18;;;;;;;6.29;100.00;101355.88;10537099;28;20043;-70
2023/01/10 13:26:55;;;;;;;27.83;7.45;;;;;;;6.35;100.00;101349.56;10519209;28;20063;-70
2023/01/10 13:31:59;;;;;;;25.50;5.85;;;;;;;6.35;100.00;101355.03;10471582;28;20037;-71
2023/01/10 13:37:10;;;;;;;18.48;5.93;;;;;;;6.22;100.00;101350.44;10487800;28;20650;-70
2023/01/10 13:47:47;;;;;;;25.13;6.60;;;;;;;6.10;100.00;101357.63;10482283;28;20062;-74
2023/01/10 13:52:50;;;;;;;28.20;6.07;;;;;;;6.12;100.00;101354.66;10494463;28;20045;-71
2023/01/10 13:58:14;;;;;;;29.50;7.22;;;;;;;6.11;100.00;101359.28;10492448;28;20044;-71
2023/01/10 14:03:37;;;;;;;29.42;6.75;;;;;;;6.13;100.00;101334.47;10473674;28;20045;-71
2023/01/10 14:08:38;;;;;;;25.15;6.60;;;;;;;6.08;100.00;101315.97;10473218;28;20037;-70
2023/01/10 14:13:49;;;;;;;18.40;7.72;;;;;;;6.01;100.00;101301.47;10457510;28;20063;-70
2023/01/10 14:18:50;;;;;;;30.92;9.32;;;;;;;5.98;100.00;101294.56;10457491;28;20113;-70
2023/01/10 14:23:51;;;;;;;28.70;8.63;;;;;;;5.89;100.00;101281.28;10472026;28;20625;-71
2023/01/10 14:28:51;;;;;;;16.33;7.95;;;;;;;5.83;100.00;101277.53;10441052;28;20063;-70
2023/01/10 14:33:52;;;;;;;25.45;7.93;;;;;;;5.79;100.00;101268.91;10563145;28;20036;-71
2023/01/10 14:38:57;;;;;;;22.35;6.97;;;;;;;5.72;100.00;101259.03;10583241;28;20042;-71
2023/01/10 14:44:18;;;;;;;34.80;9.13;;;;;;;5.67;100.00;101251.50;10548836;28;20226;-71
2023/01/10 14:49:26;;;;;;;25.65;7.10;;;;;;;5.65;100.00;101234.47;10545738;28;20039;-70
2023/01/10 14:54:28;;;;;;;20.00;5.20;;;;;;;5.59;100.00;101232.59;10562613;28;20514;-71
2023/01/10 14:59:30;;;;;;;20.05;6.45;;;;;;;5.59;100.00;101218.94;10549073;28;20039;-71
2023/01/10 15:04:32;;;;;;;34.10;6.38;;;;;;;5.56;100.00;101211.16;10563820;28;20123;-71
2023/01/10 15:09:33;;;;;;;24.67;7.38;;;;;;;5.47;100.00;101194.16;10570788;28;20055;-71
2023/01/10 15:14:33;;;;;;;24.92;6.30;;;;;;;5.50;100.00;101181.97;10540076;28;20028;-71
2023/01/10 15:19:36;;;;;;;29.40;6.07;;;;;;;5.59;100.00;101180.69;10525591;28;20067;-71
2023/01/10 15:24:36;;;;;;;26.35;5.50;;;;;;;5.56;100.00;101175.66;10542482;28;20032;-71
2023/01/10 15:29:43;;;;;;;23.08;6.07;;;;;;;5.46;100.00;101146.91;10563030;28;20035;-72
2023/01/10 15:34:45;;;;;;;;;;;;;;;5.56;100.00;101148.34;10564207;28;20032;-71
2023/01/10 15:39:47;;;;;;;18.60;4.53;;;;;;;5.57;100.00;101145.41;10555362;28;19964;-71
2023/01/10 15:44:51;;;;;;;17.15;5.65;;;;;;;5.42;100.00;101132.00;10561911;28;20059;-73
2023/01/10 15:49:53;;;;;;;26.33;7.28;;;;;;;5.57;100.00;101139.09;10517549;28;20036;-71
2023/01/10 15:54:55;;;;;;;21.27;6.00;;;;;;;5.55;100.00;101130.28;10538524;28;20085;-71
2023/01/10 15:59:57;;;;;;;20.05;5.93;;;;;;;5.55;100.00;101124.81;10550637;28;20040;-72
2023/01/10 16:05:06;;;;;;;24.77;5.47;;;;;;;5.57;100.00;101118.09;10521925;28;20036;-71
2023/01/10 16:10:14;;;;;;;19.63;5.55;;;;;;;5.56;100.00;101104.63;10521855;28;20032;-71
2023/01/10 16:15:17;;;;;;;18.02;5.05;;;;;;;5.52;100.00;101103.41;10565992;27;20048;-72
2023/01/10 16:20:24;;;;;;;20.17;5.40;;;;;;;5.58;100.00;101105.25;10562862;27;20058;-72
2023/01/10 16:25:30;;;;;;;20.73;4.93;;;;;;;5.60;100.00;101095.81;10556324;27;20047;-71
2023/01/10 16:30:32;;;;;;;27.20;6.38;;;;;;;5.59;100.00;101087.84;10552765;27;20044;-71
2023/01/10 16:35:33;;;;;;;22.13;6.88;;;;;;;5.56;100.00;101077.34;10540256;28;20044;-72
2023/01/10 16:40:36;;;;;;;24.30;8.57;;;;;;;5.55;100.00;101070.22;10537645;28;20032;-71
2023/01/10 16:45:36;;;;;;;18.67;5.93;;;;;;;5.55;100.00;101059.28;10521231;28;20444;-71
2023/01/10 16:50:38;;;;;;;27.85;7.32;;;;;;;5.40;100.00;101024.91;10537304;28;20032;-72
2023/01/10 16:55:40;;;;;;;25.45;7.57;;;;;;;5.44;100.00;101034.31;10538126;28;20488;-71
2023/01/10 17:00:42;;;;;;;18.55;7.75;;;;;;;5.41;100.00;101021.09;10548721;28;20487;-71
2023/01/10 17:05:43;;;;;;;25.38;7.88;;;;;;;5.45;100.00;101014.16;10578870;27;20118;-71
2023/01/10 17:10:43;;;;;;;32.42;8.23;;;;;;;5.44;100.00;101015.22;10549017;27;20085;-72
2023/01/10 17:15:44;;;;;;;26.48;8.20;;;;;;;5.34;100.00;100993.00;10577523;28;20031;-71
2023/01/10 17:20:44;;;;;;;26.58;7.38;;;;;;;5.40;100.00;100983.94;10544094;28;20584;-70
2023/01/10 17:25:47;;;;;;;26.13;8.43;;;;;;;5.40;100.00;100964.81;10577957;28;20035;-70
2023/01/10 17:30:47;;;;;;;24.23;7.07;;;;;;;5.40;100.00;100953.91;10577941;27;20088;-71
2023/01/10 17:35:48;;;;;;;30.67;8.65;;;;;;;5.35;100.00;100926.41;10578843;28;20585;-71
2023/01/10 17:40:48;;;;;;;25.40;9.32;;;;;;;5.22;100.00;100896.47;10559027;28;20077;-73
2023/01/10 17:45:49;;;;;;;20.45;8.07;;;;;;;5.21;100.00;100887.44;10575875;28;20035;-73
2023/01/10 17:50:56;;;;;;;32.80;7.97;;;;;;;5.30;100.00;100904.41;10579170;28;20058;-71
2023/01/10 17:55:58;;;;;;;24.20;8.02;;;;;;;5.28;100.00;100894.75;10561390;28;20069;-72
2023/01/10 18:00:59;;;;;;;17.77;7.22;;;;;;;5.17;100.00;100866.28;10582041;28;20491;-72
2023/01/10 18:05:59;;;;;;;18.02;6.75;;;;;;;5.24;100.00;100856.97;10585870;27;20044;-73
2023/01/10 18:11:00;;;;;;;24.42;7.72;;;;;;;5.25;100.00;100841.44;10584525;27;20032;-72
2023/01/10 18:16:00;;;;;;;22.40;7.70;;;;;;;5.18;100.00;100827.00;10586589;27;20032;-73
2023/01/10 18:21:04;;;;;;;13.68;7.57;;;;;;;5.23;100.00;100827.19;10568283;27;20062;-72
2023/01/10 18:26:06;;;;;;;18.15;8.55;;;;;;;5.12;100.00;100806.03;10584991;28;20042;-74
2023/01/10 18:31:12;;;;;;;27.50;8.20;;;;;;;5.16;100.00;100810.84;10583137;27;20036;-75
2023/01/10 18:36:16;;;;;;;19.27;8.32;;;;;;;5.20;100.00;100801.16;10544663;27;20047;-76
2023/01/10 18:41:18;;;;;;;22.38;7.72;;;;;;;5.19;100.00;100798.66;10523007;28;20532;-76
2023/01/10 18:46:20;;;;;;;20.10;7.53;;;;;;;5.22;100.00;100768.19;10540035;28;20077;-74
2023/01/10 18:51:22;;;;;;;20.27;8.85;;;;;;;5.19;100.00;100772.19;10568105;27;20050;-73
2023/01/10 18:56:22;;;;;;;16.77;9.35;;;;;;;5.16;100.00;100749.97;10542878;28;20039;-74
2023/01/10 19:01:23;;;;;;;21.05;9.70;;;;;;;5.17;100.00;100751.66;10564344;27;20028;-74
2023/01/10 19:06:24;;;;;;;15.60;9.25;;;;;;;5.03;100.00;100718.16;10566518;27;20032;-74
2023/01/10 19:11:24;;;;;;;19.10;9.48;;;;;;;5.15;100.00;100732.75;10595580;27;20040;-73
2023/01/10 19:16:27;;;;;;;22.75;9.93;;;;;;;5.05;100.00;100705.97;10579991;27;20500;-75
2023/01/10 19:21:29;;;;;;;22.05;10.32;;;;;;;5.15;100.00;100704.63;10600255;27;20039;-74
2023/01/10 19:26:29;;;;;;;20.17;10.88;;;;;;;5.14;100.00;100700.22;10569465;27;20518;-72
2023/01/10 19:31:30;;;;;;;37.20;13.30;;;;;;;5.12;100.00;100694.97;10565055;27;20434;-74
2023/01/10 19:36:33;;;;;;;18.98;10.95;;;;;;;5.14;100.00;100692.03;10582293;27;20499;-74
2023/01/10 19:41:34;;;;;;;21.88;13.15;;;;;;;5.17;100.00;100689.72;10564169;27;20039;-75
2023/01/10 19:46:37;;;;;;;16.15;12.15;;;;;;;5.20;100.00;100674.78;10580864;27;20643;-75
2023/01/10 19:51:38;;;;;;;20.73;12.63;;;;;;;5.21;100.00;100660.91;10565252;27;20038;-74
2023/01/10 19:56:38;;;;;;;23.80;13.90;;;;;;;5.21;100.00;100649.16;10563741;27;20074;-74
2023/01/10 20:01:39;;;;;;;19.50;14.35;;;;;;;5.25;100.00;100680.41;10579193;27;20088;-74
2023/01/10 20:06:40;;;;;;;19.55;14.88;;;;;;;5.20;100.00;100644.75;10580655;27;20057;-73
2023/01/10 20:11:41;;;;;;;19.50;14.85;;;;;;;5.32;100.00;100667.53;10580613;27;20047;-75
2023/01/10 20:16:42;;;;;;;18.77;14.25;;;;;;;5.39;100.00;100635.50;10582415;27;20062;-74
2023/01/10 20:21:43;;;;;;;17.17;14.10;;;;;;;5.36;100.00;100622.34;10582787;27;20069;-73
2023/01/10 20:26:44;;;;;;;16.88;12.32;;;;;;;5.40;100.00;100609.06;10546267;28;20091;-77
2023/01/10 20:31:46;;;;;;;18.33;13.05;;;;;;;5.46;100.00;100609.00;10562168;27;20040;-74
2023/01/10 20:36:51;;;;;;;15.68;12.35;;;;;;;5.47;100.00;100610.66;10579772;27;20094;-76
2023/01/10 20:41:51;;;;;;;13.48;12.15;;;;;;;5.59;100.00;100616.19;10578989;27;20424;-74
2023/01/10 20:46:54;;;;;;;17.92;12.60;;;;;;;5.66;100.00;100599.72;10561303;27;20048;-74
2023/01/10 20:51:54;;;;;;;14.77;11.90;;;;;;;5.71;100.00;100610.81;10520473;28;20495;-74
2023/01/10 20:56:55;;;;;;;14.20;12.80;;;;;;;5.73;100.00;100599.66;10577356;27;20035;-73
2023/01/10 21:01:55;;;;;;;16.67;11.75;;;;;;;5.74;100.00;100565.81;10577513;27;20032;-74
2023/01/10 21:06:56;;;;;;;12.75;11.18;;;;;;;5.82;100.00;100590.91;10560830;27;20644;-73
2023/01/10 21:11:56;;;;;;;17.33;13.98;;;;;;;5.86;100.00;100574.91;10561862;27;20051;-74
2023/01/10 21:16:57;;;;;;;16.17;13.90;;;;;;;5.89;100.00;100568.13;10578457;28;20418;-70
2023/01/10 21:21:58;;;;;;;17.23;14.48;;;;;;;5.98;100.00;100573.06;10579049;27;20043;-74
2023/01/10 21:26:58;;;;;;;17.83;15.20;;;;;;;6.05;100.00;100540.19;10575729;28;20032;-74
2023/01/10 21:31:59;;;;;;;24.15;15.60;;;;;;;6.09;100.00;100540.56;10593119;27;20039;-74
2023/01/10 21:36:59;;;;;;;17.25;14.88;;;;;;;6.17;100.00;100532.03;10555400;28;20137;-74
2023/01/10 21:47:19;;;;;;;20.10;16.42;;;;;;;6.21;100.00;100509.44;10580351;28;20039;-72
2023/01/10 21:52:19;;;;;;;17.60;15.68;;;;;;;6.41;100.00;100511.06;10543951;28;20490;-73
2023/01/10 21:57:22;;;;;;;21.67;16.27;;;;;;;6.38;100.00;100490.47;10560241;28;20084;-73
2023/01/10 22:02:23;;;;;;;19.35;15.73;;;;;;;6.50;100.00;100482.28;10560047;28;20032;-75
2023/01/10 22:07:24;;;;;;;20.77;16.55;;;;;;;6.54;100.00;100466.22;10542891;28;20560;-75
2023/01/10 22:12:24;;;;;;;19.83;16.20;;;;;;;6.58;100.00;100457.31;10577606;28;20051;-72
2023/01/10 22:17:25;;;;;;;19.13;16.83;;;;;;;6.56;100.00;100459.44;10561514;28;20035;-73
2023/01/10 22:22:25;;;;;;;18.08;15.73;;;;;;;6.61;100.00;100445.88;10576855;28;20461;-72
2023/01/10 22:27:28;;;;;;;20.90;17.25;;;;;;;6.67;100.00;100450.38;10542520;28;20051;-72
2023/01/10 22:32:28;;;;;;;19.50;16.85;;;;;;;6.64;100.00;100439.94;10544537;28;20032;-72
2023/01/10 22:37:29;;;;;;;18.13;16.05;;;;;;;6.65;100.00;100424.34;10517332;28;20063;-73
2023/01/10 22:42:29;;;;;;;19.77;17.50;;;;;;;6.74;100.00;100416.59;10535676;28;20062;-74
2023/01/10 22:47:30;;;;;;;19.25;16.40;;;;;;;6.73;100.00;100412.22;10546489;27;20035;-76
2023/01/10 22:52:31;;;;;;;18.25;16.20;;;;;;;6.72;100.00;100405.06;10569436;27;20036;-68
2023/01/10 22:57:31;;;;;;;18.83;16.85;;;;;;;6.82;100.00;100413.50;10541930;28;20040;-73
2023/01/10 23:02:32;;;;;;;17.95;15.98;;;;;;;6.82;100.00;100418.97;10542329;28;20263;-75
2023/01/10 23:07:32;;;;;;;17.25;15.55;;;;;;;6.84;100.00;100408.63;10574195;27;20112;-72
2023/01/10 23:12:33;;;;;;;16.70;15.10;;;;;;;6.89;100.00;100418.88;10566819;27;20032;-74
2023/01/10 23:17:33;;;;;;;16.08;14.55;;;;;;;6.94;100.00;100427.16;10585441;27;20028;-75